Time;durP1;ratioP1;P1;durP2;ratioP2;P2;SDS_P1;SDS_P2;PMS_P1;PMS_P2;Temp;Humidity;BMP_temperature;BMP_pressure;BME280_temperature;BME280_humidity;BME280_pressure;Samples;Min_cycle;Max_cycle;Signal;HPM_P1;HPM_P2
2022/12/25 00:01:30;;;;;;;3.53;1.20;;;;;;;-145.69;100.00;52638.47;5105795;28;20202;-82
2022/12/25 00:03:58;;;;;;;2.20;1.07;;;;;;;-145.69;100.00;52604.81;5106321;27;20309;-84
2022/12/25 00:06:24;;;;;;;2.87;0.70;;;;;;;-145.69;100.00;52650.34;5122393;27;20208;-83
2022/12/25 00:08:51;;;;;;;1.43;0.90;;;;;;;-145.69;100.00;52636.50;5138789;27;20228;-83
2022/12/25 00:11:22;;;;;;;1.90;0.80;;;;;;;-145.69;100.00;52598.84;5114318;27;20197;-83
2022/12/25 00:13:48;;;;;;;1.20;0.70;;;;;;;-145.69;100.00;52610.75;5102142;28;20201;-83
2022/12/25 00:16:19;;;;;;;3.10;0.67;;;;;;;-145.69;100.00;52610.75;5106751;28;20198;-83
2022/12/25 00:18:47;;;;;;;0.77;0.70;;;;;;;-145.69;100.00;52606.78;5109868;28;20300;-84
2022/12/25 00:21:17;;;;;;;2.17;0.50;;;;;;;-145.69;100.00;52618.66;5104796;28;20201;-83
2022/12/25 00:23:44;;;;;;;1.60;0.60;;;;;;;-145.69;100.00;52610.75;5126248;27;20200;-83
2022/12/25 00:26:13;;;;;;;0.57;0.50;;;;;;;-145.69;100.00;52575.09;5108264;27;20213;-84
2022/12/25 00:28:43;;;;;;;3.80;0.70;;;;;;;-145.69;100.00;52620.66;5116283;27;20201;-84
2022/12/25 00:31:12;;;;;;;3.00;1.00;;;;;;;-145.69;100.00;52586.97;5108071;28;20293;-84
2022/12/25 00:33:40;;;;;;;0.80;0.70;;;;;;;-145.69;100.00;52624.59;5100014;28;20678;-84
2022/12/25 00:36:08;;;;;;;1.33;0.87;;;;;;;-145.69;100.00;52636.50;5098803;28;20197;-84
2022/12/25 00:38:37;;;;;;;4.70;0.60;;;;;;;-145.69;100.00;52602.81;5104431;28;20285;-84
2022/12/25 00:41:05;;;;;;;1.53;0.60;;;;;;;-145.69;100.00;52650.34;5116557;28;20691;-84
2022/12/25 00:43:34;;;;;;;0.60;0.60;;;;;;;-145.69;100.00;52586.97;5113908;28;20624;-84
2022/12/25 00:46:04;;;;;;;5.70;0.80;;;;;;;-145.69;100.00;52616.69;5105517;28;20221;-82
2022/12/25 00:48:32;;;;;;;1.20;0.57;;;;;;;-145.69;100.00;52638.47;5110512;28;20200;-84
2022/12/25 00:51:00;;;;;;;3.10;0.70;;;;;;;-145.69;100.00;52602.81;5111719;28;20201;-83
2022/12/25 00:53:28;;;;;;;1.03;0.70;;;;;;;-145.69;100.00;52618.66;5108658;28;20216;-83
2022/12/25 00:55:56;;;;;;;1.20;0.80;;;;;;;-145.69;100.00;52612.72;5097946;28;20208;-83
2022/12/25 00:58:25;;;;;;;2.97;0.80;;;;;;;-145.69;100.00;52555.28;5109067;28;20289;-82
2022/12/25 01:00:52;;;;;;;0.50;0.50;;;;;;;-145.69;100.00;52618.66;5111798;28;20198;-83
2022/12/25 01:03:20;;;;;;;0.87;0.63;;;;;;;-145.69;100.00;52618.66;5114088;28;20204;-82
2022/12/25 01:05:55;;;;;;;0.90;0.50;;;;;;;-145.69;100.00;52579.06;5097786;28;20683;-82
2022/12/25 01:08:32;;;;;;;0.80;0.80;;;;;;;-145.69;100.00;52624.59;5099938;28;20208;-82
2022/12/25 01:10:59;;;;;;;0.60;0.60;;;;;;;-145.69;100.00;52598.84;5118153;28;20201;-82
2022/12/25 01:13:26;;;;;;;1.40;0.47;;;;;;;-145.69;100.00;52610.75;5108321;27;20582;-83
2022/12/25 01:15:53;;;;;;;1.77;0.77;;;;;;;-145.69;100.00;52606.78;5112521;28;20666;-82
2022/12/25 01:18:24;;;;;;;1.20;0.47;;;;;;;-145.69;100.00;52622.63;5112358;28;20576;-82
2022/12/25 01:20:55;;;;;;;0.70;0.70;;;;;;;-145.69;100.00;52600.84;5114521;27;20197;-82
2022/12/25 01:23:22;;;;;;;1.02;0.60;;;;;;;-145.69;100.00;52612.72;5113622;28;20447;-81
2022/12/25 01:25:48;;;;;;;0.57;0.57;;;;;;;-145.69;100.00;52634.50;5115283;28;20229;-83
2022/12/25 01:28:17;;;;;;;2.40;0.77;;;;;;;-145.69;100.00;52636.50;5115949;28;20197;-82
2022/12/25 01:30:49;;;;;;;0.93;0.67;;;;;;;-145.69;100.00;52624.59;5114421;28;20648;-82
2022/12/25 01:33:15;;;;;;;0.73;0.73;;;;;;;-145.69;100.00;52610.75;5113158;28;20246;-81
2022/12/25 01:35:44;;;;;;;1.80;0.60;;;;;;;-145.69;100.00;52644.41;5099478;28;20209;-81
2022/12/25 01:38:11;;;;;;;1.30;0.70;;;;;;;-145.69;100.00;52628.56;5104864;28;20603;-81
2022/12/25 01:40:38;;;;;;;0.80;0.60;;;;;;;-145.69;100.00;52602.81;5114568;28;20202;-82
2022/12/25 01:43:06;;;;;;;0.73;0.70;;;;;;;-145.69;100.00;52594.91;5112843;28;20652;-82
2022/12/25 01:45:43;;;;;;;1.50;0.80;;;;;;;-145.69;100.00;52610.75;5101236;28;20222;-82
2022/12/25 01:48:19;;;;;;;0.63;0.60;;;;;;;-145.69;100.00;52600.84;5107909;27;20533;-83
2022/12/25 01:50:53;;;;;;;1.63;0.60;;;;;;;-145.69;100.00;52590.94;5103516;28;20204;-82
2022/12/25 01:53:20;;;;;;;2.03;0.60;;;;;;;-145.69;100.00;52622.63;5104795;28;20208;-82
2022/12/25 01:55:51;;;;;;;0.60;0.60;;;;;;;-145.69;100.00;52630.53;5093910;28;20292;-82
2022/12/25 01:58:18;;;;;;;0.90;0.73;;;;;;;-145.69;100.00;52620.66;5099135;28;20197;-82
2022/12/25 02:00:46;;;;;;;1.17;0.70;;;;;;;-145.69;100.00;52610.75;5113523;28;20567;-82
2022/12/25 02:03:21;;;;;;;1.60;0.70;;;;;;;-145.69;100.00;52628.56;5107083;28;20237;-82
2022/12/25 02:05:50;;;;;;;1.50;0.80;;;;;;;-145.69;100.00;52592.91;5107037;28;20221;-82
2022/12/25 02:08:19;;;;;;;0.43;0.43;;;;;;;-145.69;100.00;52622.63;5103186;28;20197;-83
2022/12/25 02:10:46;;;;;;;2.43;0.73;;;;;;;-145.69;100.00;52642.44;5113444;28;20217;-82
2022/12/25 02:13:15;;;;;;;2.13;0.57;;;;;;;-145.69;100.00;52634.50;5104847;28;20580;-82
2022/12/25 02:15:52;;;;;;;0.60;0.60;;;;;;;-145.69;100.00;52634.50;5100717;28;20204;-82
2022/12/25 02:18:31;;;;;;;0.60;0.50;;;;;;;-145.69;100.00;52622.63;5108030;28;20454;-81
2022/12/25 02:21:31;;;;;;;0.70;0.70;;;;;;;-145.69;100.00;52620.66;5108740;28;20205;-81
2022/12/25 02:24:13;;;;;;;0.87;0.70;;;;;;;-145.69;100.00;52630.53;5093173;28;20197;-82
2022/12/25 02:27:04;;;;;;;0.70;0.70;;;;;;;-145.69;100.00;52642.44;5108665;28;20868;-82
2022/12/25 02:29:43;;;;;;;1.40;0.50;;;;;;;-145.69;100.00;52606.78;5100508;28;20276;-81
2022/12/25 02:32:21;;;;;;;1.83;0.70;;;;;;;-145.69;100.00;52618.66;5111806;28;20590;-81
2022/12/25 02:34:56;;;;;;;2.90;0.73;;;;;;;-145.69;100.00;52583.00;5104167;28;20205;-81
2022/12/25 02:37:30;;;;;;;0.73;0.60;;;;;;;-145.69;100.00;52610.75;5096988;28;20291;-81
2022/12/25 02:40:05;;;;;;;1.00;0.90;;;;;;;-145.69;100.00;52598.84;5113152;28;20205;-82
2022/12/25 03:08:03;;;;;;;2.23;0.80;;;;;;;-145.69;100.00;52638.47;5117038;28;20331;-83
2022/12/25 03:13:23;;;;;;;0.87;0.80;;;;;;;-145.69;100.00;52596.88;5113018;27;20208;-82
2022/12/25 03:18:44;;;;;;;1.13;0.93;;;;;;;-145.69;100.00;52646.41;5100437;28;20201;-83
2022/12/25 03:26:55;;;;;;;1.17;0.90;;;;;;;-145.69;100.00;52634.50;5054378;28;20229;-82
2022/12/25 03:32:18;;;;;;;1.20;0.80;;;;;;;-145.69;100.00;52638.47;5109154;28;20209;-82
2022/12/25 04:36:10;;;;;;;6.37;1.20;;;;;;;-145.69;100.00;52634.50;5098021;28;20610;-83
2022/12/25 04:38:38;;;;;;;2.10;1.13;;;;;;;-145.69;100.00;52624.59;5101419;28;20663;-83
2022/12/25 04:41:07;;;;;;;1.17;0.90;;;;;;;-145.69;100.00;52638.47;5096227;28;20226;-83
2022/12/25 04:43:33;;;;;;;3.77;1.20;;;;;;;-145.69;100.00;52640.44;5096421;28;20203;-79
2022/12/25 04:46:01;;;;;;;2.40;1.00;;;;;;;-145.69;100.00;52646.41;5097754;28;20226;-82
2022/12/25 04:48:29;;;;;;;4.83;0.90;;;;;;;-145.69;100.00;52622.63;5101966;28;20240;-83
2022/12/25 04:50:56;;;;;;;0.80;0.80;;;;;;;-145.69;100.00;52634.50;5095447;28;20213;-83
2022/12/25 04:53:22;;;;;;;1.50;1.10;;;;;;;-145.69;100.00;52642.44;5106924;28;20190;-83
2022/12/25 04:55:49;;;;;;;1.97;0.63;;;;;;;-145.69;100.00;52646.41;5111440;27;20200;-82
2022/12/25 04:58:17;;;;;;;1.43;1.10;;;;;;;-145.69;100.00;52598.84;5118669;28;20228;-83
2022/12/25 05:00:43;;;;;;;1.20;0.97;;;;;;;-145.69;100.00;52636.50;5120455;28;20543;-82
2022/12/25 05:03:10;;;;;;;1.50;1.13;;;;;;;-145.69;100.00;52612.72;5108906;28;20202;-82
2022/12/25 05:05:39;;;;;;;1.63;1.10;;;;;;;-145.69;100.00;52618.66;5099393;28;20225;-83
2022/12/25 05:08:06;;;;;;;2.20;1.20;;;;;;;-145.69;100.00;52616.69;5099329;28;20224;-83
2022/12/25 05:10:33;;;;;;;1.80;1.30;;;;;;;-145.69;100.00;52606.78;5100342;28;20710;-83
2022/12/25 05:12:59;;;;;;;1.43;1.10;;;;;;;-145.69;100.00;52668.19;5135690;27;20205;-83
2022/12/25 05:15:27;;;;;;;1.63;1.10;;;;;;;-145.69;100.00;52626.59;5112720;27;20202;-82
2022/12/25 05:17:53;;;;;;;1.37;1.07;;;;;;;-145.69;100.00;52616.69;5098386;28;20648;-82
2022/12/25 05:20:20;;;;;;;1.40;1.27;;;;;;;-145.69;100.00;52608.75;5105986;28;20206;-83
2022/12/25 05:22:46;;;;;;;1.83;1.37;;;;;;;-145.69;100.00;52642.44;5114292;28;20197;-82
2022/12/25 05:25:13;;;;;;;3.23;1.23;;;;;;;-145.69;100.00;52622.63;5115770;28;20189;-83
2022/12/25 05:27:39;;;;;;;2.03;1.27;;;;;;;-145.69;100.00;52620.66;5111572;28;20190;-83
2022/12/25 05:30:07;;;;;;;3.77;1.73;;;;;;;-145.69;100.00;52636.50;5111231;27;20204;-82
2022/12/25 05:32:35;;;;;;;2.47;1.20;;;;;;;-145.69;100.00;52634.50;5096665;28;20194;-85
2022/12/25 05:35:01;;;;;;;3.63;1.33;;;;;;;-145.69;100.00;52626.59;5116439;28;20190;-83
2022/12/25 05:37:28;;;;;;;1.23;1.13;;;;;;;-145.69;100.00;52618.66;5117037;28;20197;-80
2022/12/25 05:39:54;;;;;;;3.40;1.40;;;;;;;-145.69;100.00;52648.38;5107794;28;20293;-83
2022/12/25 05:42:21;;;;;;;2.60;1.20;;;;;;;-145.69;100.00;52658.28;5097578;28;20218;-82
2022/12/25 05:44:47;;;;;;;1.57;1.33;;;;;;;-145.69;100.00;52622.63;5102020;28;20228;-82
2022/12/25 05:47:14;;;;;;;3.97;1.40;;;;;;;-145.69;100.00;52608.75;5109220;28;20455;-81
2022/12/25 05:49:42;;;;;;;3.83;1.90;;;;;;;-145.69;100.00;52634.50;5103699;28;20201;-82
2022/12/25 05:52:08;;;;;;;2.17;1.40;;;;;;;-145.69;100.00;52646.41;5113139;28;20201;-82
2022/12/25 05:54:35;;;;;;;2.30;1.40;;;;;;;-145.69;100.00;52610.75;5108271;28;20201;-82
2022/12/25 05:57:02;;;;;;;2.37;1.97;;;;;;;-145.69;100.00;52616.69;5109973;28;20204;-81
2022/12/25 05:59:29;;;;;;;3.87;1.50;;;;;;;-145.69;100.00;52606.78;5107376;28;20202;-82
2022/12/25 06:01:55;;;;;;;2.53;1.17;;;;;;;-145.69;100.00;52620.66;5109650;28;20205;-82
2022/12/25 06:04:22;;;;;;;1.77;1.33;;;;;;;-145.69;100.00;52634.50;5104348;28;20198;-82
2022/12/25 06:06:50;;;;;;;2.43;1.77;;;;;;;-145.69;100.00;52616.69;5095223;28;20696;-81
2022/12/25 06:09:16;;;;;;;2.93;1.87;;;;;;;-145.69;100.00;52614.72;5100798;28;20198;-82
2022/12/25 06:11:42;;;;;;;6.70;2.03;;;;;;;-145.69;100.00;52602.81;5098571;28;20197;-83
2022/12/25 06:14:11;;;;;;;4.63;2.57;;;;;;;-145.69;100.00;52602.81;5099045;28;20222;-83
2022/12/25 06:16:38;;;;;;;3.67;2.67;;;;;;;-145.69;100.00;52622.63;5095456;28;20202;-82
2022/12/25 06:19:04;;;;;;;3.73;2.17;;;;;;;-145.69;100.00;52624.59;5096317;28;20202;-82
2022/12/25 06:21:31;;;;;;;5.03;2.70;;;;;;;-145.69;100.00;52638.47;5112907;27;20190;-81
2022/12/25 06:23:59;;;;;;;7.30;3.23;;;;;;;-145.69;100.00;52598.84;5104510;28;20200;-80
2022/12/25 06:26:26;;;;;;;5.10;2.90;;;;;;;-145.69;100.00;52588.97;5110522;28;20232;-81
2022/12/25 06:28:52;;;;;;;7.80;3.00;;;;;;;-145.69;100.00;52648.38;5111762;28;20193;-83
2022/12/25 06:31:21;;;;;;;4.67;2.83;;;;;;;-145.69;100.00;52614.72;5104636;28;20206;-83
2022/12/25 06:33:49;;;;;;;8.03;3.43;;;;;;;-145.69;100.00;52614.72;5102890;28;20669;-83
2022/12/25 06:36:17;;;;;;;7.97;3.77;;;;;;;-145.69;100.00;52636.50;5111778;28;22458;-83
2022/12/25 06:38:44;;;;;;;9.00;3.87;;;;;;;-145.69;100.00;52590.94;5108397;28;20316;-81
2022/12/25 06:41:15;;;;;;;9.83;4.13;;;;;;;-145.69;100.00;52604.81;5106654;27;20237;-82
2022/12/25 06:43:42;;;;;;;7.47;4.00;;;;;;;-145.69;100.00;52594.91;5097445;28;20198;-81
2022/12/25 06:46:10;;;;;;;8.03;4.37;;;;;;;-145.69;100.00;52624.59;5098812;28;20684;-83
2022/12/25 06:48:38;;;;;;;7.67;3.97;;;;;;;-145.69;100.00;52630.53;5108520;28;20210;-83
2022/12/25 06:51:05;;;;;;;7.57;3.73;;;;;;;-145.69;100.00;52626.59;5109813;28;20201;-82
2022/12/25 06:53:32;;;;;;;8.43;4.23;;;;;;;-145.69;100.00;52592.91;5115580;28;20217;-82
2022/12/25 06:56:02;;;;;;;7.77;3.70;;;;;;;-145.69;100.00;52618.66;5105488;27;20206;-83
2022/12/25 06:58:30;;;;;;;6.27;3.17;;;;;;;-145.69;100.00;52600.84;5108772;28;20193;-83
2022/12/25 07:00:57;;;;;;;8.67;3.60;;;;;;;-145.69;100.00;52618.66;5097422;27;20691;-82
2022/12/25 07:03:27;;;;;;;7.17;3.33;;;;;;;-145.69;100.00;52583.00;5105043;28;20221;-84
2022/12/25 07:05:53;;;;;;;5.37;3.00;;;;;;;-145.69;100.00;52622.63;5099161;28;20247;-82
2022/12/25 07:08:20;;;;;;;6.30;3.33;;;;;;;-145.69;100.00;52610.75;5104890;28;20209;-81
2022/12/25 07:10:46;;;;;;;5.93;2.83;;;;;;;-145.69;100.00;52658.28;5099833;28;20205;-79
2022/12/25 07:13:13;;;;;;;5.93;3.07;;;;;;;-145.69;100.00;52602.81;5103798;27;20200;-80
2022/12/25 07:15:41;;;;;;;9.20;3.70;;;;;;;-145.69;100.00;52610.75;5098874;27;20202;-79
2022/12/25 07:18:08;;;;;;;5.10;2.87;;;;;;;-145.69;100.00;52606.78;5101735;28;20201;-81
2022/12/25 07:20:36;;;;;;;5.90;3.27;;;;;;;-145.69;100.00;52590.94;5104944;28;20190;-83
2022/12/25 07:23:02;;;;;;;7.83;3.70;;;;;;;-145.69;100.00;52622.63;5098202;28;20206;-82
2022/12/25 07:25:29;;;;;;;7.20;3.27;;;;;;;-145.69;100.00;52630.53;5110451;28;20230;-83
2022/12/25 07:27:55;;;;;;;5.40;3.10;;;;;;;-145.69;100.00;52604.81;5112899;28;20222;-82
2022/12/25 07:30:22;;;;;;;5.10;2.80;;;;;;;-145.69;100.00;52634.50;5107176;28;20194;-82
2022/12/25 07:32:50;;;;;;;6.50;3.67;;;;;;;-145.69;100.00;52634.50;5106950;28;20201;-85
2022/12/25 07:35:17;;;;;;;6.83;3.07;;;;;;;-145.69;100.00;52600.84;5099775;28;20298;-81
2022/12/25 07:37:49;;;;;;;4.70;2.57;;;;;;;-145.69;100.00;52598.84;5109437;27;20197;-84
2022/12/25 07:40:15;;;;;;;6.63;2.90;;;;;;;-145.69;100.00;52628.56;5103374;28;20254;-83
2022/12/25 07:42:45;;;;;;;6.90;3.37;;;;;;;-145.69;100.00;52606.78;5110810;28;20228;-84
2022/12/25 07:45:11;;;;;;;8.10;3.30;;;;;;;-145.69;100.00;52634.50;5111133;27;20194;-83
2022/12/25 07:47:40;;;;;;;7.93;3.47;;;;;;;-145.69;100.00;52602.81;5128391;27;20222;-83
2022/12/25 07:50:10;;;;;;;6.50;2.90;;;;;;;-145.69;100.00;52658.28;5110736;28;20646;-83
2022/12/25 07:52:39;;;;;;;3.50;2.27;;;;;;;-145.69;100.00;52610.75;5126898;28;20229;-83
2022/12/25 07:55:07;;;;;;;6.07;3.10;;;;;;;-145.69;100.00;52620.66;5110212;28;20222;-83
2022/12/25 07:57:35;;;;;;;5.93;3.40;;;;;;;-145.69;100.00;52636.50;5104445;28;20201;-83
2022/12/25 08:00:05;;;;;;;7.30;3.33;;;;;;;-145.69;100.00;52646.41;5110748;28;20226;-83
2022/12/25 08:02:31;;;;;;;7.73;3.20;;;;;;;-145.69;100.00;52636.50;5112020;27;20224;-83
2022/12/25 08:05:04;;;;;;;5.40;3.67;;;;;;;-145.69;100.00;52636.50;5121733;28;20204;-83
2022/12/25 08:07:34;;;;;;;6.07;3.20;;;;;;;-145.69;100.00;52610.75;5119988;28;20213;-81
2022/12/25 08:10:01;;;;;;;5.13;3.17;;;;;;;-145.69;100.00;52610.75;5131972;28;20201;-83
2022/12/25 08:12:29;;;;;;;5.90;2.97;;;;;;;-145.69;100.00;52626.59;5119550;28;20190;-82
2022/12/25 08:14:58;;;;;;;5.27;3.27;;;;;;;-145.69;100.00;52598.84;5116370;28;20727;-82
2022/12/25 08:17:29;;;;;;;4.23;2.57;;;;;;;-145.69;100.00;52630.53;5110226;28;20197;-81
2022/12/25 08:19:58;;;;;;;4.87;2.77;;;;;;;-145.69;100.00;52602.81;5101227;28;20759;-83
2022/12/25 08:22:25;;;;;;;4.90;2.70;;;;;;;-145.69;100.00;52636.50;5107203;28;21016;-81
2022/12/25 08:24:58;;;;;;;7.27;2.73;;;;;;;-145.69;100.00;52602.81;5105032;28;20288;-83
2022/12/25 08:27:30;;;;;;;7.40;2.60;;;;;;;-145.69;100.00;52602.81;5108776;28;20239;-82
2022/12/25 08:29:56;;;;;;;5.83;2.50;;;;;;;-145.69;100.00;52636.50;5099236;28;20202;-82
2022/12/25 08:32:25;;;;;;;4.60;2.87;;;;;;;-145.69;100.00;52606.78;5102450;28;20194;-81
2022/12/25 08:34:52;;;;;;;5.97;2.20;;;;;;;-145.69;100.00;52618.66;5116146;28;20264;-81
2022/12/25 08:37:20;;;;;;;4.47;2.17;;;;;;;-145.69;100.00;52608.75;5104272;28;20606;-83
2022/12/25 08:39:47;;;;;;;4.23;2.30;;;;;;;-145.69;100.00;52622.63;5107960;28;20293;-83
2022/12/25 08:42:19;;;;;;;3.07;2.23;;;;;;;-145.69;100.00;52630.53;5095963;28;20234;-83
2022/12/25 08:44:51;;;;;;;3.67;2.30;;;;;;;-145.69;100.00;52622.63;5108005;28;20238;-82
2022/12/25 08:47:18;;;;;;;3.80;1.93;;;;;;;-145.69;100.00;52594.91;5098219;28;20308;-84
2022/12/25 08:49:49;;;;;;;2.67;1.70;;;;;;;-145.69;100.00;52610.75;5101054;28;20667;-83
2022/12/25 08:52:18;;;;;;;4.13;2.13;;;;;;;-145.69;100.00;52612.72;5101242;28;20218;-82
2022/12/25 08:54:46;;;;;;;3.00;1.73;;;;;;;-145.69;100.00;52630.53;5104571;28;20607;-83
2022/12/25 08:57:12;;;;;;;3.70;1.80;;;;;;;-145.69;100.00;52600.84;5111518;28;20201;-82
2022/12/25 08:59:49;;;;;;;2.73;1.83;;;;;;;-145.69;100.00;52618.66;5108097;28;20198;-83
2022/12/25 09:02:17;;;;;;;2.37;1.50;;;;;;;-145.69;100.00;52610.75;5105538;28;20304;-83
2022/12/25 09:04:51;;;;;;;1.83;1.37;;;;;;;-145.69;100.00;52614.72;5101234;28;20285;-83
2022/12/25 09:07:17;;;;;;;4.63;1.40;;;;;;;-145.69;100.00;52594.91;5111808;28;20678;-80
2022/12/25 09:09:47;;;;;;;2.57;1.60;;;;;;;-145.69;100.00;52598.84;5111741;27;20205;-83
2022/12/25 09:12:23;;;;;;;4.07;1.60;;;;;;;-145.69;100.00;52598.84;5102602;28;20205;-82
2022/12/25 09:14:51;;;;;;;4.57;1.80;;;;;;;-145.69;100.00;52594.91;5122900;27;20285;-83
2022/12/25 09:17:17;;;;;;;5.97;2.47;;;;;;;-145.69;100.00;52575.09;5104974;28;20205;-82
2022/12/25 09:19:47;;;;;;;4.37;1.83;;;;;;;-145.69;100.00;52590.94;5096845;28;20198;-81
2022/12/25 09:22:13;;;;;;;2.60;1.77;;;;;;;-145.69;100.00;52583.00;5095431;28;20198;-81
2022/12/25 09:24:51;;;;;;;3.23;1.80;;;;;;;-145.69;100.00;52650.34;5106513;28;20193;-81
2022/12/25 09:27:23;;;;;;;2.90;1.60;;;;;;;-145.69;100.00;52598.84;5101640;28;20230;-84
2022/12/25 09:29:54;;;;;;;6.43;1.73;;;;;;;-145.69;100.00;52586.97;5103049;28;20207;-83
2022/12/25 09:32:20;;;;;;;4.90;1.43;;;;;;;-145.69;100.00;52594.91;5104048;28;20564;-81
2022/12/25 09:34:56;;;;;;;4.07;1.30;;;;;;;-145.69;100.00;52654.31;5107329;28;20212;-83
2022/12/25 09:37:28;;;;;;;2.10;1.30;;;;;;;-145.69;100.00;52588.97;5101352;28;20198;-83
2022/12/25 09:39:56;;;;;;;2.63;1.50;;;;;;;-145.69;100.00;52583.00;5102591;28;20202;-84
2022/12/25 09:42:25;;;;;;;2.00;1.30;;;;;;;-145.69;100.00;52594.91;5104577;28;20234;-82
2022/12/25 09:44:59;;;;;;;2.07;1.27;;;;;;;-145.69;100.00;52559.25;5103125;28;20212;-82
2022/12/25 09:47:28;;;;;;;1.17;0.90;;;;;;;-145.69;100.00;52553.31;5099226;28;20222;-82
2022/12/25 09:50:03;;;;;;;1.50;0.85;;;;;;;-145.69;100.00;52569.16;5104247;28;20205;-83
2022/12/25 09:52:37;;;;;;;2.15;1.13;;;;;;;-145.69;100.00;52561.22;5103554;27;20197;-80
2022/12/25 09:55:11;;;;;;;1.20;1.08;;;;;;;-145.69;100.00;52586.97;5103896;28;20197;-84
2022/12/25 09:57:38;;;;;;;2.63;0.90;;;;;;;-145.69;100.00;52588.97;5100517;28;20189;-82
2022/12/25 10:00:14;;;;;;;1.67;0.93;;;;;;;-145.69;100.00;52553.31;5104219;27;20204;-82
2022/12/25 10:03:14;;;;;;;1.00;0.90;;;;;;;-145.69;100.00;52537.47;5108424;27;20193;-83
2022/12/25 10:06:11;;;;;;;0.75;0.70;;;;;;;-145.69;100.00;52567.16;5103196;28;20190;-83
2022/12/25 10:09:01;;;;;;;1.85;0.88;;;;;;;-145.69;100.00;52575.09;5073167;28;20282;-85
2022/12/25 10:11:42;;;;;;;1.52;0.95;;;;;;;-145.69;100.00;52586.97;5104945;28;20228;-84
2022/12/25 10:14:25;;;;;;;4.20;1.00;;;;;;;-145.69;100.00;52533.50;5112148;28;20278;-83
2022/12/25 10:17:07;;;;;;;0.90;0.73;;;;;;;-145.69;100.00;52529.53;5103023;28;20205;-82
2022/12/25 10:19:42;;;;;;;1.17;0.80;;;;;;;-145.69;100.00;52535.47;5105109;27;20679;-82
2022/12/25 10:22:16;;;;;;;1.38;0.93;;;;;;;-145.69;100.00;52535.47;5102582;28;21143;-84
2022/12/25 10:24:49;;;;;;;2.35;1.10;;;;;;;-145.69;100.00;52533.50;5111238;27;20292;-83
2022/12/25 10:27:35;;;;;;;1.48;0.90;;;;;;;-145.69;100.00;52527.56;5105555;28;20878;-82
2022/12/25 10:30:05;;;;;;;1.02;0.80;;;;;;;-145.69;100.00;52523.59;5105139;28;20246;-83
2022/12/25 10:32:36;;;;;;;0.68;0.63;;;;;;;-145.69;100.00;52537.47;5102117;27;20254;-83
2022/12/25 10:35:04;;;;;;;1.90;0.90;;;;;;;-145.69;100.00;52527.56;5110441;28;20648;-83
2022/12/25 10:37:30;;;;;;;3.40;0.73;;;;;;;-145.69;100.00;52573.13;5104944;27;20254;-80
2022/12/25 10:39:57;;;;;;;0.93;0.77;;;;;;;-145.69;100.00;52511.72;5106797;27;20221;-81
2022/12/25 10:42:32;;;;;;;1.42;0.75;;;;;;;-145.69;100.00;52515.69;5099188;28;20703;-81
2022/12/25 10:45:01;;;;;;;1.75;0.80;;;;;;;-145.69;100.00;52519.63;5105039;28;20193;-83
2022/12/25 10:47:30;;;;;;;1.02;0.75;;;;;;;-145.69;100.00;52511.72;5104874;28;20228;-82
2022/12/25 10:49:59;;;;;;;1.77;0.70;;;;;;;-145.69;100.00;52513.69;5109156;28;20205;-83
2022/12/25 10:52:28;;;;;;;1.15;0.80;;;;;;;-145.69;100.00;52541.44;5105241;27;20198;-82
2022/12/25 10:54:55;;;;;;;1.00;0.73;;;;;;;-145.69;100.00;52523.59;5098642;28;20197;-82
2022/12/25 10:57:24;;;;;;;1.35;0.70;;;;;;;-145.69;100.00;52503.81;5111481;28;20209;-82
2022/12/25 10:59:54;;;;;;;1.13;0.90;;;;;;;-145.69;100.00;52511.72;5108751;28;20193;-83
2022/12/25 11:02:25;;;;;;;1.58;0.88;;;;;;;-145.69;100.00;52531.53;5103311;28;20691;-83
2022/12/25 11:05:01;;;;;;;0.90;0.75;;;;;;;-145.69;100.00;52507.75;5104166;27;20270;-84
2022/12/25 11:07:28;;;;;;;1.23;0.70;;;;;;;-145.69;100.00;52531.53;5108992;28;20778;-83
2022/12/25 11:09:56;;;;;;;1.00;0.70;;;;;;;-145.69;100.00;52533.50;5106035;28;20652;-84
2022/12/25 11:12:30;;;;;;;2.10;0.90;;;;;;;-145.69;100.00;52519.63;5103415;28;20263;-82
2022/12/25 11:14:59;;;;;;;2.22;0.90;;;;;;;-145.69;100.00;52537.47;5098060;28;20201;-84
2022/12/25 11:17:26;;;;;;;1.90;1.02;;;;;;;-145.69;100.00;52509.75;5105775;28;20194;-83
2022/12/25 11:19:55;;;;;;;2.03;0.90;;;;;;;-145.69;100.00;52474.09;5101301;28;20201;-82
2022/12/25 11:22:24;;;;;;;1.55;0.80;;;;;;;-145.69;100.00;52491.91;5098454;28;20745;-81
2022/12/25 11:24:50;;;;;;;1.73;0.80;;;;;;;-145.69;100.00;52499.84;5106990;28;20221;-82
2022/12/25 11:27:26;;;;;;;0.47;0.47;;;;;;;-145.69;100.00;52487.97;5103503;28;20306;-82
2022/12/25 11:29:57;;;;;;;1.65;1.00;;;;;;;-145.69;100.00;52521.63;5094847;28;20198;-82
2022/12/25 11:32:29;;;;;;;1.27;0.80;;;;;;;-145.69;100.00;52478.06;5104339;28;20685;-82
2022/12/25 11:34:57;;;;;;;1.10;0.70;;;;;;;-145.69;100.00;52499.84;5105201;28;20197;-82
2022/12/25 11:37:30;;;;;;;1.27;0.70;;;;;;;-145.69;100.00;52472.13;5102040;28;20189;-81
2022/12/25 11:39:57;;;;;;;2.58;0.60;;;;;;;-145.69;100.00;52495.88;5106275;28;20205;-82
2022/12/25 11:42:26;;;;;;;1.45;0.80;;;;;;;-145.69;100.00;52470.13;5103735;28;20225;-81
2022/12/25 11:45:00;;;;;;;1.75;0.90;;;;;;;-145.69;100.00;52515.69;5106040;28;20202;-81
2022/12/25 11:47:33;;;;;;;0.82;0.77;;;;;;;-145.69;99.31;52460.22;5102162;28;20221;-82
2022/12/25 11:50:03;;;;;;;0.90;0.75;;;;;;;-145.69;99.38;52454.28;5110891;28;20225;-81
2022/12/25 11:52:34;;;;;;;1.88;0.90;;;;;;;-145.69;99.46;52499.84;5109199;28;20201;-82
2022/12/25 11:55:07;;;;;;;1.20;0.90;;;;;;;-145.69;99.07;52507.75;5100884;28;20194;-81
2022/12/25 11:57:35;;;;;;;0.70;0.70;;;;;;;-145.69;100.00;52484.00;5096884;27;20198;-81
2022/12/25 12:00:08;;;;;;;0.98;0.60;;;;;;;-145.69;100.00;52513.69;5103817;27;20289;-79
2022/12/25 12:02:38;;;;;;;0.98;0.60;;;;;;;-145.69;100.00;52491.91;5103050;27;20659;-80
2022/12/25 12:05:14;;;;;;;1.08;0.60;;;;;;;-145.69;100.00;52519.63;5074932;27;20223;-79
2022/12/25 12:07:52;;;;;;;1.33;0.50;;;;;;;-145.69;95.44;52456.28;5045831;28;20243;-80
2022/12/25 12:10:25;;;;;;;0.60;0.50;;;;;;;-145.69;98.84;52456.28;5062194;28;20198;-80
2022/12/25 12:12:57;;;;;;;0.50;0.50;;;;;;;-145.69;97.76;52484.00;5066996;28;20191;-80
2022/12/25 12:15:28;;;;;;;0.88;0.70;;;;;;;-145.69;97.59;52468.16;5065637;28;20195;-79
2022/12/25 12:17:55;;;;;;;0.60;0.60;;;;;;;-145.69;94.03;52450.31;5070798;28;20235;-80
2022/12/25 12:20:30;;;;;;;2.08;0.60;;;;;;;-145.69;92.76;52478.06;5067776;28;20234;-80
2022/12/25 12:23:00;;;;;;;0.88;0.70;;;;;;;-145.69;96.30;52493.91;5070350;28;20202;-78
2022/12/25 12:25:28;;;;;;;0.30;0.30;;;;;;;-145.69;97.25;52468.16;5065817;28;20194;-78
2022/12/25 12:27:57;;;;;;;0.65;0.50;;;;;;;-145.69;96.08;52480.03;5062449;28;20226;-80
2022/12/25 12:30:26;;;;;;;0.73;0.40;;;;;;;-145.69;93.09;52460.22;5068721;28;20936;-82
2022/12/25 12:32:57;;;;;;;0.70;0.50;;;;;;;-145.69;92.61;52478.06;5071043;28;20574;-82
2022/12/25 12:35:26;;;;;;;0.40;0.40;;;;;;;-145.69;97.80;52487.97;5068176;28;20252;-82
2022/12/25 12:37:55;;;;;;;0.90;0.60;;;;;;;-145.69;97.50;52480.03;5067251;28;20270;-81
2022/12/25 12:40:29;;;;;;;0.68;0.52;;;;;;;-145.69;97.95;52501.81;5070235;28;20640;-81
2022/12/25 12:42:56;;;;;;;0.70;0.50;;;;;;;-145.69;96.96;52456.28;5071729;28;20227;-82
2022/12/25 12:45:28;;;;;;;0.65;0.40;;;;;;;-145.69;95.93;52480.03;5070067;28;20214;-82
2022/12/25 12:47:55;;;;;;;0.50;0.43;;;;;;;-145.69;93.13;52464.19;5074438;28;20227;-81
2022/12/25 12:50:34;;;;;;;1.60;0.60;;;;;;;-145.69;91.58;52476.06;5071034;28;20190;-81
2022/12/25 12:53:15;;;;;;;1.30;0.60;;;;;;;-145.69;98.04;52468.16;5064096;28;20455;-80
2022/12/25 12:55:42;;;;;;;0.50;0.50;;;;;;;-145.69;95.44;52446.38;5072763;28;20195;-81
2022/12/25 12:58:26;;;;;;;2.80;0.70;;;;;;;-145.69;96.12;52491.91;5067982;28;20210;-80
2022/12/25 13:01:08;;;;;;;0.75;0.68;;;;;;;-145.69;95.58;52426.56;5071416;28;20203;-80
2022/12/25 13:03:43;;;;;;;0.45;0.45;;;;;;;-145.69;96.57;52487.97;5062790;28;20191;-79